createdAt,value
2023-03-17T00:02:07.630Z,99369.34
2023-03-17T00:04:37.170Z,99366.13
2023-03-17T00:07:07.126Z,99367.13
2023-03-17T00:09:35.291Z,99368.34
2023-03-17T00:12:03.851Z,99373.00
2023-03-17T00:14:31.985Z,99363.88
2023-03-17T00:17:00.234Z,99364.84
2023-03-17T00:19:31.486Z,99375.84
2023-03-17T00:22:02.071Z,99365.69
2023-03-17T00:24:31.225Z,99369.13
2023-03-17T00:26:59.951Z,99374.00
2023-03-17T00:29:28.170Z,99366.31
2023-03-17T00:31:59.021Z,99382.72
2023-03-17T00:34:27.367Z,99379.06
2023-03-17T00:36:56.239Z,99380.69
2023-03-17T00:39:27.281Z,99385.94
2023-03-17T00:41:55.409Z,99380.47
2023-03-17T00:44:24.287Z,99388.41
2023-03-17T00:46:52.720Z,99383.53
2023-03-17T00:49:23.554Z,99391.84
2023-03-17T00:51:52.277Z,99379.47
2023-03-17T00:54:21.948Z,99385.56
2023-03-17T00:56:53.346Z,99391.22
2023-03-17T00:59:26.190Z,99381.91
2023-03-17T01:01:55.521Z,99391.88
2023-03-17T01:04:24.303Z,99389.22
2023-03-17T01:06:53.366Z,99394.69
2023-03-17T01:09:26.593Z,99392.25
2023-03-17T01:11:56.691Z,99392.47
2023-03-17T01:14:25.994Z,99400.16
2023-03-17T01:16:55.228Z,99387.81
2023-03-17T01:19:23.867Z,99381.53
2023-03-17T01:21:52.400Z,99383.16
2023-03-17T01:24:21.152Z,99391.66
2023-03-17T01:26:49.310Z,99383.13
2023-03-17T01:29:18.975Z,99383.94
2023-03-17T01:31:47.795Z,99380.72
2023-03-17T01:34:16.041Z,99373.84
2023-03-17T01:36:44.478Z,99370.19
2023-03-17T01:39:13.057Z,99371.19
2023-03-17T01:41:41.492Z,99375.66
2023-03-17T01:44:17.015Z,99367.94
2023-03-17T01:46:47.595Z,99370.19
2023-03-17T01:49:27.926Z,99355.97
2023-03-17T01:52:03.014Z,99354.19
2023-03-17T01:54:37.324Z,99349.50
2023-03-17T01:57:14.305Z,99347.28
2023-03-17T01:59:47.745Z,99353.34
2023-03-17T02:02:20.681Z,99352.72
2023-03-17T02:04:49.526Z,99351.13
2023-03-17T02:07:17.700Z,99343.81
2023-03-17T02:09:46.190Z,99343.22
2023-03-17T02:12:15.652Z,99335.72
2023-03-17T02:14:44.220Z,99328.44
2023-03-17T02:17:13.033Z,99328.44
2023-03-17T02:19:42.635Z,99309.56
2023-03-17T02:22:12.556Z,99302.28
2023-03-17T02:24:44.434Z,99302.50
2023-03-17T02:27:17.456Z,99302.91
2023-03-17T02:29:47.365Z,99291.56
2023-03-17T02:32:17.858Z,99290.72
2023-03-17T02:34:47.162Z,99296.59
2023-03-17T02:37:17.677Z,99295.19
2023-03-17T02:39:46.682Z,99291.34
2023-03-17T02:42:15.312Z,99294.19
2023-03-17T02:44:43.754Z,99293.16
2023-03-17T02:47:12.191Z,99287.91
2023-03-17T02:49:41.922Z,99285.88
2023-03-17T02:52:10.368Z,99281.19
2023-03-17T02:54:40.511Z,99280.22
2023-03-17T02:57:08.887Z,99271.69
2023-03-17T02:59:38.572Z,99276.94
2023-03-17T03:02:07.060Z,99285.88
2023-03-17T03:04:36.031Z,99287.69
2023-03-17T03:07:04.193Z,99286.09
2023-03-17T03:09:32.422Z,99284.06
2023-03-17T03:12:01.967Z,99275.56
2023-03-17T03:14:30.199Z,99275.34
2023-03-17T03:16:58.654Z,99270.88
2023-03-17T03:19:26.823Z,99276.53
2023-03-17T03:21:55.061Z,99277.78
2023-03-17T03:24:23.221Z,99285.47
2023-03-17T03:26:51.933Z,99280.19
2023-03-17T03:29:21.400Z,99276.97
2023-03-17T03:31:49.628Z,99278.00
2023-03-17T03:34:17.791Z,99264.81
2023-03-17T03:36:46.021Z,99269.25
2023-03-17T03:39:14.609Z,99260.75
2023-03-17T03:41:42.884Z,99272.53
2023-03-17T03:44:11.107Z,99273.50
2023-03-17T03:46:40.823Z,99276.34
2023-03-17T03:49:09.127Z,99263.59
2023-03-17T03:51:37.784Z,99270.66
2023-03-17T03:54:05.973Z,99264.22
2023-03-17T03:56:34.437Z,99270.66
2023-03-17T03:59:02.648Z,99274.31
2023-03-17T04:01:30.741Z,99268.03
2023-03-17T04:04:00.362Z,99275.75
2023-03-17T04:06:28.738Z,99275.13
2023-03-17T04:08:58.313Z,99277.97
2023-03-17T04:11:26.545Z,99272.91
2023-03-17T04:13:54.694Z,99269.06
2023-03-17T04:16:23.046Z,99275.75
2023-03-17T04:18:51.318Z,99269.03
2023-03-17T04:21:21.651Z,99269.25
2023-03-17T04:23:49.937Z,99261.97
2023-03-17T04:26:19.257Z,99266.84
2023-03-17T04:28:47.810Z,99251.03
2023-03-17T04:31:16.417Z,99255.69
2023-03-17T04:33:44.666Z,99249.00
2023-03-17T04:36:19.525Z,99244.13
2023-03-17T04:38:49.283Z,99243.31
2023-03-17T04:41:17.831Z,99250.81
2023-03-17T04:43:46.280Z,99245.56
2023-03-17T04:46:15.134Z,99246.59
2023-03-17T04:48:43.438Z,99239.06
2023-03-17T04:51:12.246Z,99235.84
2023-03-17T04:53:40.528Z,99234.63
2023-03-17T04:56:10.306Z,99236.66
2023-03-17T04:58:38.420Z,99236.84
2023-03-17T05:01:07.574Z,99231.38
2023-03-17T05:03:36.316Z,99236.03
2023-03-17T05:06:06.223Z,99228.13
2023-03-17T05:08:34.481Z,99228.31
2023-03-17T05:11:03.224Z,99231.56
2023-03-17T05:13:32.947Z,99231.16
2023-03-17T05:16:01.608Z,99227.91
2023-03-17T05:18:29.883Z,99226.72
2023-03-17T05:20:57.964Z,99224.66
2023-03-17T05:23:26.339Z,99231.75
2023-03-17T05:25:54.852Z,99229.13
2023-03-17T05:28:23.428Z,99222.47
2023-03-17T05:30:53.084Z,99219.03
2023-03-17T05:33:21.863Z,99220.63
2023-03-17T05:35:50.272Z,99213.31
2023-03-17T05:38:18.898Z,99214.13
2023-03-17T05:40:48.558Z,99208.47
2023-03-17T05:43:16.921Z,99199.34
2023-03-17T05:45:45.682Z,99202.38
2023-03-17T05:48:15.200Z,99199.97
2023-03-17T05:50:43.721Z,99203.63
2023-03-17T05:53:12.258Z,99197.31
2023-03-17T05:55:40.623Z,99199.56
2023-03-17T05:58:09.686Z,99196.75
2023-03-17T06:00:38.096Z,99190.25
2023-03-17T06:03:06.496Z,99193.91
2023-03-17T06:05:36.830Z,99190.47
2023-03-17T06:08:05.887Z,99189.44
2023-03-17T06:10:34.452Z,99183.38
2023-03-17T06:13:03.971Z,99175.47
2023-03-17T06:15:33.986Z,99178.09
2023-03-17T06:18:02.670Z,99183.19
2023-03-17T06:20:31.310Z,99183.19
2023-03-17T06:23:05.025Z,99173.63
2023-03-17T06:25:34.801Z,99173.84
2023-03-17T06:28:04.036Z,99167.78
2023-03-17T06:30:32.957Z,99161.72
2023-03-17T06:33:01.700Z,99163.31
2023-03-17T06:35:30.302Z,99168.19
2023-03-17T06:38:01.019Z,99172.03
2023-03-17T06:40:29.617Z,99179.94
2023-03-17T06:42:58.290Z,99169.59
2023-03-17T06:45:26.887Z,99168.81
2023-03-17T06:47:55.189Z,99166.34
2023-03-17T06:50:23.367Z,99170.81
2023-03-17T06:52:51.618Z,99174.06
2023-03-17T06:55:21.621Z,99173.63
2023-03-17T06:57:51.184Z,99183.19
2023-03-17T07:00:21.195Z,99183.19
2023-03-17T07:02:49.788Z,99179.09
2023-03-17T07:05:18.654Z,99175.47
2023-03-17T07:07:47.295Z,99178.09
2023-03-17T07:10:16.023Z,99171.00
2023-03-17T07:12:45.883Z,99179.94
2023-03-17T07:15:14.165Z,99175.69
2023-03-17T07:17:42.701Z,99173.66
2023-03-17T07:20:12.036Z,99174.69
2023-03-17T07:22:40.315Z,99166.78
2023-03-17T07:25:09.831Z,99176.50
2023-03-17T07:27:38.207Z,99179.72
2023-03-17T07:30:09.758Z,99178.94
2023-03-17T07:32:37.797Z,99175.69
2023-03-17T07:35:08.268Z,99186.41
2023-03-17T07:37:36.589Z,99186.63
2023-03-17T07:40:06.396Z,99179.31
2023-03-17T07:42:34.692Z,99173.69
2023-03-17T07:45:03.838Z,99166.78
2023-03-17T07:47:33.607Z,99162.72
2023-03-17T07:50:02.179Z,99163.94
2023-03-17T07:52:30.751Z,99160.47
2023-03-17T07:54:59.549Z,99167.38
2023-03-17T07:57:28.842Z,99158.03
2023-03-17T07:59:57.019Z,99150.13
2023-03-17T08:02:25.365Z,99156.19
2023-03-17T08:04:55.213Z,99157.38
2023-03-17T08:07:23.348Z,99154.94
2023-03-17T08:09:52.704Z,99156.94
2023-03-17T08:12:21.304Z,99169.53
2023-03-17T08:14:49.459Z,99156.94
2023-03-17T08:17:18.083Z,99159.75
2023-03-17T08:19:46.221Z,99154.47
2023-03-17T08:22:15.716Z,99155.88
2023-03-17T08:24:44.460Z,99165.78
2023-03-17T08:27:12.897Z,99150.75
2023-03-17T08:29:41.123Z,99151.94
2023-03-17T08:32:10.067Z,99159.56
2023-03-17T08:34:38.579Z,99163.00
2023-03-17T08:37:10.043Z,99159.91
2023-03-17T08:39:41.042Z,99160.66
2023-03-17T08:42:09.240Z,99150.50
2023-03-17T08:44:37.380Z,99158.97
2023-03-17T08:47:05.827Z,99156.88
2023-03-17T08:49:36.664Z,99151.31
2023-03-17T08:52:05.345Z,99148.97
2023-03-17T08:54:35.913Z,99151.16
2023-03-17T08:57:05.741Z,99150.50
2023-03-17T08:59:34.444Z,99154.19
2023-03-17T09:02:02.757Z,99152.13
2023-03-17T09:04:32.589Z,99161.84
2023-03-17T09:07:03.999Z,99157.56
2023-03-17T09:09:32.865Z,99165.84
2023-03-17T09:12:01.111Z,99171.94
2023-03-17T09:14:40.103Z,99177.28
2023-03-17T09:17:12.248Z,99188.25
2023-03-17T09:19:40.590Z,99188.44
2023-03-17T09:22:09.219Z,99193.94
2023-03-17T09:24:37.462Z,99201.44
2023-03-17T09:27:05.851Z,99204.44
2023-03-17T09:29:35.838Z,99199.16
2023-03-17T09:32:04.213Z,99202.63
2023-03-17T09:34:32.873Z,99214.19
2023-03-17T09:37:00.999Z,99212.00
2023-03-17T09:39:29.244Z,99218.28
2023-03-17T09:42:10.240Z,99227.47
2023-03-17T09:44:59.482Z,99226.66
2023-03-17T09:47:52.595Z,99232.53
2023-03-17T09:50:26.724Z,99241.88
2023-03-17T09:52:58.617Z,99253.09
2023-03-17T09:55:30.580Z,99258.81
2023-03-17T09:58:01.024Z,99258.22
2023-03-17T10:00:31.383Z,99266.56
2023-03-17T10:03:00.424Z,99268.22
2023-03-17T10:05:31.225Z,99262.75
2023-03-17T10:08:28.938Z,99266.03
2023-03-17T10:11:04.397Z,99277.44
2023-03-17T10:13:49.329Z,99273.59
2023-03-17T10:16:20.922Z,99265.84
2023-03-17T10:18:53.257Z,99273.56
2023-03-17T10:21:27.164Z,99274.81
2023-03-17T10:23:57.490Z,99274.19
2023-03-17T10:26:32.995Z,99266.66
2023-03-17T10:29:04.182Z,99264.22
2023-03-17T10:31:35.790Z,99270.25
2023-03-17T10:34:13.819Z,99267.63
2023-03-17T10:36:44.681Z,99268.81
2023-03-17T10:39:15.665Z,99263.31
2023-03-17T10:41:54.148Z,99263.13
2023-03-17T10:44:24.838Z,99264.34
2023-03-17T10:46:58.299Z,99258.50
2023-03-17T10:49:26.871Z,99266.41
2023-03-17T10:51:55.804Z,99262.94
2023-03-17T10:54:26.590Z,99266.41
2023-03-17T10:57:02.642Z,99265.78
2023-03-17T10:59:33.302Z,99281.63
2023-03-17T11:02:16.922Z,99279.22
2023-03-17T11:04:45.055Z,99283.06
2023-03-17T11:07:18.690Z,99289.59
2023-03-17T11:09:50.800Z,99283.13
2023-03-17T11:12:26.564Z,99286.34
2023-03-17T11:14:59.393Z,99285.34
2023-03-17T11:17:40.177Z,99285.94
2023-03-17T11:20:39.661Z,99286.34
2023-03-17T11:23:16.263Z,99281.88
2023-03-17T11:25:47.651Z,99279.84
2023-03-17T11:28:20.862Z,99281.47
2023-03-17T11:31:03.792Z,99272.50
2023-03-17T11:33:43.901Z,99284.72
2023-03-17T11:36:28.579Z,99283.53
2023-03-17T11:39:02.328Z,99284.16
2023-03-17T11:41:51.815Z,99275.63
2023-03-17T11:44:56.309Z,99282.94
2023-03-17T11:47:39.824Z,99281.13
2023-03-17T11:50:22.351Z,99281.50
2023-03-17T11:52:57.959Z,99284.16
2023-03-17T11:55:33.049Z,99280.66
2023-03-17T11:58:05.663Z,99286.31
2023-03-17T12:00:35.696Z,99281.06
2023-03-17T12:03:15.779Z,99277.22
2023-03-17T12:05:48.939Z,99277.81
2023-03-17T12:08:25.907Z,99279.28
2023-03-17T12:10:56.651Z,99281.53
2023-03-17T12:13:29.906Z,99279.88
2023-03-17T12:16:04.499Z,99283.75
2023-03-17T12:18:38.353Z,99277.84
2023-03-17T12:21:14.771Z,99282.72
2023-03-17T12:23:49.668Z,99276.66
2023-03-17T12:26:20.415Z,99267.91
2023-03-17T12:28:55.211Z,99276.22
2023-03-17T12:31:30.214Z,99267.88
2023-03-17T12:34:05.106Z,99265.41
2023-03-17T12:36:36.812Z,99269.06
2023-03-17T12:39:10.720Z,99266.44
2023-03-17T12:41:51.065Z,99263.56
2023-03-17T12:44:34.489Z,99263.03
2023-03-17T12:47:17.371Z,99260.97
2023-03-17T12:50:07.551Z,99257.13
2023-03-17T12:53:00.597Z,99255.28
2023-03-17T12:55:32.410Z,99245.09
2023-03-17T12:58:03.606Z,99239.56
2023-03-17T13:00:35.200Z,99243.78
2023-03-17T13:03:18.574Z,99239.88
2023-03-17T13:05:50.846Z,99235.97
2023-03-17T13:08:28.279Z,99226.22
2023-03-17T13:11:19.060Z,99229.25
2023-03-17T13:13:59.303Z,99226.56
2023-03-17T13:16:32.262Z,99224.34
2023-03-17T13:19:26.951Z,99218.69
2023-03-17T13:22:35.086Z,99218.00
2023-03-17T13:25:16.709Z,99217.13
2023-03-17T13:27:46.157Z,99212.38
2023-03-17T13:30:58.557Z,99216.34
2023-03-17T13:33:33.025Z,99218.50
2023-03-17T13:36:10.861Z,99223.53
2023-03-17T13:39:05.133Z,99220.91
2023-03-17T13:41:52.113Z,99221.47
2023-03-17T13:44:35.549Z,99217.09
2023-03-17T13:47:27.331Z,99215.91
2023-03-17T13:50:01.317Z,99219.72
2023-03-17T13:52:34.550Z,99219.16
2023-03-17T13:55:29.507Z,99219.53
2023-03-17T13:58:33.379Z,99221.63
2023-03-17T14:01:06.809Z,99224.53
2023-03-17T14:03:41.984Z,99227.19
2023-03-17T14:06:13.514Z,99227.34
2023-03-17T14:08:45.268Z,99237.41
2023-03-17T14:11:24.114Z,99233.69
2023-03-17T14:14:04.858Z,99239.84
2023-03-17T14:16:35.930Z,99242.84
2023-03-17T14:19:13.224Z,99250.34
2023-03-17T14:21:41.587Z,99252.34
2023-03-17T14:24:20.821Z,99246.91
2023-03-17T14:26:51.181Z,99255.66
2023-03-17T14:29:22.334Z,99251.75
2023-03-17T14:31:54.132Z,99245.59
2023-03-17T14:34:23.394Z,99251.03
2023-03-17T14:36:53.245Z,99253.84
2023-03-17T14:39:24.666Z,99256.03
2023-03-17T14:42:02.341Z,99254.41
2023-03-17T14:44:38.864Z,99259.84
2023-03-17T14:47:14.132Z,99254.56
2023-03-17T14:49:42.344Z,99249.34
2023-03-17T14:52:20.592Z,99255.53
2023-03-17T14:54:53.651Z,99249.06
2023-03-17T14:57:29.179Z,99257.63
2023-03-17T14:59:59.130Z,99254.38
2023-03-17T15:02:34.563Z,99253.66
2023-03-17T15:05:07.956Z,99264.06
2023-03-17T15:07:39.906Z,99266.97
2023-03-17T15:10:16.618Z,99271.47
2023-03-17T15:12:47.405Z,99268.00
2023-03-17T15:15:23.376Z,99262.56
2023-03-17T15:17:58.155Z,99273.94
2023-03-17T15:20:27.115Z,99278.56
2023-03-17T15:23:00.131Z,99274.91
2023-03-17T15:25:35.429Z,99278.41
2023-03-17T15:28:12.218Z,99278.41
2023-03-17T15:30:47.516Z,99278.03
2023-03-17T15:33:22.413Z,99273.16
2023-03-17T15:35:51.843Z,99280.34
2023-03-17T15:38:20.024Z,99275.25
2023-03-17T15:40:48.206Z,99281.19
2023-03-17T15:43:19.149Z,99275.50
2023-03-17T15:45:47.559Z,99275.25
2023-03-17T15:48:21.498Z,99280.78
2023-03-17T15:50:50.113Z,99270.53
2023-03-17T15:53:18.346Z,99269.88
2023-03-17T15:55:47.284Z,99262.72
2023-03-17T15:58:15.822Z,99259.84
2023-03-17T16:00:46.507Z,99264.72
2023-03-17T16:03:20.159Z,99257.63
2023-03-17T16:05:48.313Z,99259.47
2023-03-17T16:08:18.006Z,99258.66
2023-03-17T16:10:46.927Z,99262.56
2023-03-17T16:13:15.187Z,99260.13
2023-03-17T16:15:48.460Z,99259.69
2023-03-17T16:18:19.621Z,99264.97
2023-03-17T16:20:50.919Z,99262.56
2023-03-17T16:23:21.377Z,99263.75
2023-03-17T16:25:50.464Z,99271.63
2023-03-17T16:28:20.420Z,99272.81
2023-03-17T16:30:51.569Z,99266.06
2023-03-17T16:33:22.281Z,99271.50
2023-03-17T16:35:52.467Z,99268.34
2023-03-17T16:38:24.418Z,99269.53
2023-03-17T16:40:55.086Z,99276.66
2023-03-17T16:43:26.927Z,99282.31
2023-03-17T16:45:59.482Z,99280.28
2023-03-17T16:48:28.676Z,99274.75
2023-03-17T16:50:57.741Z,99278.59
2023-03-17T16:53:26.320Z,99278.00
2023-03-17T16:55:55.774Z,99281.06
2023-03-17T16:58:26.081Z,99288.25
2023-03-17T17:00:58.751Z,99277.53
2023-03-17T17:03:27.237Z,99287.13
2023-03-17T17:05:55.454Z,99285.13
2023-03-17T17:08:23.492Z,99292.50
2023-03-17T17:10:52.340Z,99292.25
2023-03-17T17:13:20.610Z,99303.63
2023-03-17T17:15:49.025Z,99308.53
2023-03-17T17:18:21.867Z,99313.63
2023-03-17T17:20:50.745Z,99320.16
2023-03-17T17:23:22.499Z,99324.69
2023-03-17T17:25:51.523Z,99324.88
2023-03-17T17:28:22.490Z,99335.91
2023-03-17T17:30:51.764Z,99331.91
2023-03-17T17:33:22.240Z,99333.34
2023-03-17T17:35:51.322Z,99335.00
2023-03-17T17:38:22.972Z,99329.41
2023-03-17T17:40:51.383Z,99338.16
2023-03-17T17:43:19.555Z,99335.34
2023-03-17T17:45:49.880Z,99339.06
2023-03-17T17:48:19.687Z,99337.06
2023-03-17T17:50:49.733Z,99339.28
2023-03-17T17:53:18.145Z,99348.44
2023-03-17T17:55:48.820Z,99344.19
2023-03-17T17:58:19.636Z,99346.22
2023-03-17T18:00:48.402Z,99361.63
2023-03-17T18:03:16.848Z,99356.56
2023-03-17T18:05:44.957Z,99375.09
2023-03-17T18:08:15.967Z,99377.72
2023-03-17T18:10:44.216Z,99386.47
2023-03-17T18:13:12.500Z,99373.66
2023-03-17T18:15:40.848Z,99382.78
2023-03-17T18:18:09.113Z,99384.84
2023-03-17T18:20:37.251Z,99389.09
2023-03-17T18:23:05.531Z,99388.28
2023-03-17T18:25:35.164Z,99397.25
2023-03-17T18:28:03.484Z,99394.38
2023-03-17T18:30:35.056Z,99396.44
2023-03-17T18:33:07.769Z,99392.75
2023-03-17T18:35:36.786Z,99413.06
2023-03-17T18:38:05.183Z,99411.44
2023-03-17T18:40:34.933Z,99411.88
2023-03-17T18:43:03.155Z,99407.00
2023-03-17T18:45:31.394Z,99406.19
2023-03-17T18:47:59.644Z,99409.84
2023-03-17T18:50:27.772Z,99419.00
2023-03-17T18:52:56.110Z,99427.72
2023-03-17T18:55:24.378Z,99433.41
2023-03-17T18:57:54.583Z,99429.13
2023-03-17T19:00:25.405Z,99430.34
2023-03-17T19:02:53.947Z,99429.34
2023-03-17T19:05:22.324Z,99430.16
2023-03-17T19:07:50.522Z,99431.16
2023-03-17T19:10:19.503Z,99433.59
2023-03-17T19:12:47.992Z,99436.25
2023-03-17T19:15:17.792Z,99433.78
2023-03-17T19:17:45.896Z,99430.56
2023-03-17T19:20:15.714Z,99439.91
2023-03-17T19:22:43.754Z,99436.25
2023-03-17T19:25:30.538Z,99437.47
2023-03-17T19:27:59.206Z,99452.88
2023-03-17T19:30:28.769Z,99453.69
2023-03-17T19:32:56.999Z,99453.50
2023-03-17T19:35:25.145Z,99456.56
2023-03-17T19:37:53.181Z,99455.75
2023-03-17T19:40:22.510Z,99448.00
2023-03-17T19:42:50.586Z,99448.84
2023-03-17T19:45:19.173Z,99449.44
2023-03-17T19:47:49.103Z,99457.78
2023-03-17T19:50:17.567Z,99458.38
2023-03-17T19:52:46.064Z,99462.03
2023-03-17T19:55:14.198Z,99466.28
2023-03-17T19:57:42.394Z,99464.44
2023-03-17T20:00:12.103Z,99464.25
2023-03-17T20:02:40.517Z,99459.59
2023-03-17T20:05:10.505Z,99463.84
2023-03-17T20:07:40.750Z,99462.03
2023-03-17T20:10:10.899Z,99455.53
2023-03-17T20:12:39.512Z,99455.75
2023-03-17T20:15:09.102Z,99458.97
2023-03-17T20:17:37.666Z,99459.78
2023-03-17T20:20:27.614Z,99458.75
2023-03-17T20:23:43.404Z,99348.06
2023-03-17T20:26:12.896Z,99367.34
2023-03-17T20:28:41.081Z,99368.97
2023-03-17T20:31:09.548Z,99380.31
2023-03-17T20:33:37.828Z,99388.00
2023-03-17T20:36:06.658Z,99403.81
2023-03-17T20:38:37.009Z,99413.78
2023-03-17T20:41:12.557Z,99426.75
2023-03-17T20:43:40.866Z,99432.22
2023-03-17T20:46:10.194Z,99435.28
2023-03-17T20:48:38.922Z,99434.25
2023-03-17T20:51:07.250Z,99440.94
2023-03-17T20:53:36.293Z,99432.03
2023-03-17T20:56:05.011Z,99434.66
2023-03-17T20:58:34.595Z,99439.94
2023-03-17T21:01:03.452Z,99439.31
2023-03-17T21:03:32.481Z,99443.19
2023-03-17T21:06:01.002Z,99453.31
2023-03-17T21:08:29.137Z,99453.13
2023-03-17T21:10:57.397Z,99461.63
2023-03-17T21:13:25.478Z,99471.78
2023-03-17T21:15:55.546Z,99469.72
2023-03-17T21:18:24.456Z,99470.16
2023-03-17T21:20:52.679Z,99468.91
2023-03-17T21:23:21.013Z,99466.69
2023-03-17T21:25:49.290Z,99474.22
2023-03-17T21:28:17.467Z,99474.59
2023-03-17T21:30:45.687Z,99471.16
2023-03-17T21:33:15.557Z,99472.78
2023-03-17T21:35:43.697Z,99473.41
2023-03-17T21:38:11.994Z,99478.25
2023-03-17T21:40:40.603Z,99483.50
2023-03-17T21:43:09.069Z,99479.88
2023-03-17T21:45:37.254Z,99477.25
2023-03-17T21:48:05.827Z,99482.53
2023-03-17T21:50:35.595Z,99490.44
2023-03-17T21:53:04.730Z,99489.41
2023-03-17T21:55:33.229Z,99486.78
2023-03-17T21:58:02.489Z,99496.31
2023-03-17T22:00:39.413Z,99492.88
2023-03-17T22:03:12.855Z,99498.97
2023-03-17T22:05:42.477Z,99489.19
2023-03-17T22:08:10.605Z,99492.84
2023-03-17T22:10:40.457Z,99491.81
2023-03-17T22:13:08.756Z,99492.66
2023-03-17T22:15:37.228Z,99493.88
2023-03-17T22:18:06.095Z,99486.56
2023-03-17T22:20:34.583Z,99504.22
2023-03-17T22:23:04.217Z,99506.84
2023-03-17T22:25:32.342Z,99504.81
2023-03-17T22:28:00.537Z,99508.03
2023-03-17T22:30:28.988Z,99495.47
2023-03-17T22:32:57.604Z,99504.56
2023-03-17T22:35:26.072Z,99505.81
2023-03-17T22:37:54.194Z,99510.44
2023-03-17T22:40:23.730Z,99505.59
2023-03-17T22:42:52.122Z,99516.94
2023-03-17T22:45:20.280Z,99522.22
2023-03-17T22:47:48.520Z,99520.78
2023-03-17T22:50:16.798Z,99521.41
2023-03-17T22:52:44.912Z,99523.03
2023-03-17T22:55:13.113Z,99531.53
2023-03-17T22:57:43.500Z,99524.03
2023-03-17T23:00:15.368Z,99522.03
2023-03-17T23:02:43.990Z,99523.66
2023-03-17T23:05:13.593Z,99531.16
2023-03-17T23:07:51.566Z,99530.34
2023-03-17T23:10:23.172Z,99525.91
2023-03-17T23:12:53.233Z,99530.94
2023-03-17T23:15:22.009Z,99530.75
2023-03-17T23:17:50.192Z,99532.97
2023-03-17T23:20:19.158Z,99530.53
2023-03-17T23:22:47.749Z,99538.25
2023-03-17T23:25:16.380Z,99541.69
2023-03-17T23:27:44.740Z,99548.56
2023-03-17T23:30:16.258Z,99546.34
2023-03-17T23:32:45.115Z,99544.94
2023-03-17T23:35:14.277Z,99542.31
2023-03-17T23:37:42.863Z,99549.03
2023-03-17T23:40:14.009Z,99552.25
2023-03-17T23:42:42.494Z,99549.63
2023-03-17T23:45:11.943Z,99551.44
2023-03-17T23:47:41.647Z,99549.03
2023-03-17T23:50:11.559Z,99552.66
2023-03-17T23:52:40.480Z,99553.66
2023-03-17T23:55:10.119Z,99551.66
2023-03-17T23:57:38.602Z,99554.28
